Saturday, November 18, 2017, 1:15 AM EST
Back to Local

KSYR, Syracuse Hancock International Airport

Location: Syracuse, NY, United States Lat: 43.117
Local Time: 1:15 AM EST ( 6:15 GMT) Lon: -76.1
Time Zone: US/Eastern Elev: 410 ft

Show me the last for .
Show Decoded

2017-11-18 00:54 METAR KSYR 180554Z 09005KT 10SM FEW110 SCT250 M04/M06 A2996 RMK AO2 SLP146
                 T10391061 11011 21044 58027 =
2017-11-17 23:54 METAR KSYR 180454Z 09006KT 10SM FEW120 SCT250 M04/M06 A2999 RMK AO2 SLP158
                 T10391061 400281044 =
2017-11-17 22:54 METAR KSYR 180354Z 11005KT 10SM FEW250 M04/M06 A3002 RMK AO2 SLP168 T10391061 =
2017-11-17 21:54 METAR KSYR 180254Z 10004KT 10SM FEW250 M03/M06 A3004 RMK AO2 SLP173 T10281061
                 58029 =
2017-11-17 20:54 METAR KSYR 180154Z 11004KT 10SM FEW250 M03/M06 A3007 RMK AO2 SLP183 T10281061 =
2017-11-17 19:54 METAR KSYR 180054Z 00000KT 10SM SCT250 M02/M06 A3010 RMK AO2 SLP194 T10221056 =
2017-11-17 18:54 METAR KSYR 172354Z 00000KT 10SM SCT250 M01/M05 A3012 RMK AO2 SLP203 T10111050
                 10028 21028 58014 =
2017-11-17 17:54 METAR KSYR 172254Z 00000KT 10SM FEW250 M01/M06 A3014 RMK AO2 SLP209 T10111061 =
2017-11-17 16:54 METAR KSYR 172154Z 29006KT 10SM FEW250 M01/M06 A3015 RMK AO2 SLP213 T10111061 =
2017-11-17 15:54 METAR KSYR 172054Z 28009KT 10SM FEW030 FEW250 01/M07 A3016 RMK AO2 SLP215
                 T00111067 56001 =
2017-11-17 14:54 METAR KSYR 171954Z 30010KT 10SM FEW030 FEW200 02/M07 A3017 RMK AO2 SLP216
                 T00221067 =
2017-11-17 13:54 METAR KSYR 171854Z 32010KT 10SM FEW030 SCT180 SCT250 02/M06 A3016 RMK AO2 SLP215
                 T00221061 =
2017-11-17 12:54 METAR KSYR 171754Z 28009KT 10SM FEW030 SCT180 BKN250 02/M07 A3017 RMK AO2 SLP217
                 T00171067 10017 21017 58010 =
2017-11-17 11:54 METAR KSYR 171654Z 27011G18KT 10SM FEW030 SCT180 BKN250 01/M07 A3019 RMK AO2
                 SLP224 T00111072 =
2017-11-17 10:54 METAR KSYR 171554Z 28013G19KT 10SM SCT024 BKN250 01/M06 A3020 RMK AO2 SLP227
                 T00061061 =
2017-11-17 10:51 METAR KSYR 171551Z 27012G19KT 10SM SCT024 BKN250 01/M06 A3020 RMK AO2 =
2017-11-17 09:54 METAR KSYR 171454Z 28014KT 10SM OVC024 M01/M06 A3021 RMK AO2 SLP232 T10061061
                 51016 =
2017-11-17 08:54 METAR KSYR 171354Z 31013KT 10SM OVC024 M02/M06 A3020 RMK AO2 SLP229 T10171056 =
2017-11-17 07:54 METAR KSYR 171254Z 29013KT 10SM OVC023 M01/M05 A3019 RMK AO2 SLP223 T10111050 =
2017-11-17 06:54 METAR KSYR 171154Z 33011KT 9SM OVC023 M01/M04 A3017 RMK AO2 SNE53 SLP216 P0000
                 60000 70010 T10061044 10017 21006 53028 =
2017-11-17 05:54 METAR KSYR 171054Z 31018G23KT 10SM -SN OVC022 01/M03 A3013 RMK AO2 SNB50 SLP205
                 PCPN VERY LIGHT P0000 T00061028 =
2017-11-17 04:54 METAR KSYR 170954Z 31013KT 10SM BKN025 OVC032 01/M03 A3010 RMK AO2 SLP195 BKN V
                 OVC T00111033 =
2017-11-17 03:54 METAR KSYR 170854Z 32011KT 10SM BKN026 OVC031 01/M03 A3008 RMK AO2 SLP187 BKN V
                 OVC 60000 T00061033 51023 =
2017-11-17 02:54 METAR KSYR 170754Z 29013G24KT 10SM OVC023 01/M03 A3007 RMK AO2 PK WND 28030/0657
                 SLP182 T00061028 =
2017-11-17 01:54 METAR KSYR 170654Z 29015G22KT 10SM OVC025 01/M02 A3004 RMK AO2 PK WND 29027/0610
                 SNE46 SLP171 P0000 T00111022 =

Support USWX by starting your Amazon purchase here.